sensor_id;sensor_type;location;lat;lon;timestamp;temperature;humidity
11647;DHT22;5880;52.342;9.662;2023-10-08T00:00:47;18.30;65.40
11647;DHT22;5880;52.342;9.662;2023-10-08T00:03:19;18.20;65.80
11647;DHT22;5880;52.342;9.662;2023-10-08T00:05:46;18.10;65.70
11647;DHT22;5880;52.342;9.662;2023-10-08T00:08:13;18.00;65.80
11647;DHT22;5880;52.342;9.662;2023-10-08T00:10:42;17.90;66.20
11647;DHT22;5880;52.342;9.662;2023-10-08T00:13:10;17.90;66.30
11647;DHT22;5880;52.342;9.662;2023-10-08T00:15:42;17.80;66.30
11647;DHT22;5880;52.342;9.662;2023-10-08T00:18:21;17.70;66.30
11647;DHT22;5880;52.342;9.662;2023-10-08T00:20:49;17.70;66.40
11647;DHT22;5880;52.342;9.662;2023-10-08T00:23:24;17.60;66.50
11647;DHT22;5880;52.342;9.662;2023-10-08T00:25:53;17.60;66.50
11647;DHT22;5880;52.342;9.662;2023-10-08T00:28:20;17.60;66.70
11647;DHT22;5880;52.342;9.662;2023-10-08T00:30:47;17.50;66.90
11647;DHT22;5880;52.342;9.662;2023-10-08T00:33:13;17.50;67.00
11647;DHT22;5880;52.342;9.662;2023-10-08T00:35:41;17.50;67.00
11647;DHT22;5880;52.342;9.662;2023-10-08T00:38:08;17.60;67.00
11647;DHT22;5880;52.342;9.662;2023-10-08T00:40:46;17.40;66.70
11647;DHT22;5880;52.342;9.662;2023-10-08T00:43:34;17.40;66.70
11647;DHT22;5880;52.342;9.662;2023-10-08T00:46:06;17.40;67.50
11647;DHT22;5880;52.342;9.662;2023-10-08T00:48:51;17.30;67.10
11647;DHT22;5880;52.342;9.662;2023-10-08T00:51:23;17.30;67.00
11647;DHT22;5880;52.342;9.662;2023-10-08T00:53:59;17.30;67.00
11647;DHT22;5880;52.342;9.662;2023-10-08T00:56:32;17.20;67.10
11647;DHT22;5880;52.342;9.662;2023-10-08T00:59:18;17.20;66.90
11647;DHT22;5880;52.342;9.662;2023-10-08T01:01:47;17.10;66.80
11647;DHT22;5880;52.342;9.662;2023-10-08T01:04:18;17.10;67.00
11647;DHT22;5880;52.342;9.662;2023-10-08T01:06:53;17.10;66.90
11647;DHT22;5880;52.342;9.662;2023-10-08T01:09:24;16.50;67.00
11647;DHT22;5880;52.342;9.662;2023-10-08T01:14:34;16.90;67.20
11647;DHT22;5880;52.342;9.662;2023-10-08T01:17:01;16.90;66.80
11647;DHT22;5880;52.342;9.662;2023-10-08T01:19:26;16.80;67.00
11647;DHT22;5880;52.342;9.662;2023-10-08T01:21:53;16.80;67.00
11647;DHT22;5880;52.342;9.662;2023-10-08T01:24:19;16.80;67.00
11647;DHT22;5880;52.342;9.662;2023-10-08T01:26:49;16.70;67.00
11647;DHT22;5880;52.342;9.662;2023-10-08T01:29:15;16.70;67.10
11647;DHT22;5880;52.342;9.662;2023-10-08T01:31:47;16.70;67.20
11647;DHT22;5880;52.342;9.662;2023-10-08T01:34:20;16.70;67.10
11647;DHT22;5880;52.342;9.662;2023-10-08T01:36:52;16.60;67.00
11647;DHT22;5880;52.342;9.662;2023-10-08T01:39:18;16.60;67.00
11647;DHT22;5880;52.342;9.662;2023-10-08T01:41:45;16.60;67.00
11647;DHT22;5880;52.342;9.662;2023-10-08T01:44:13;16.60;67.00
11647;DHT22;5880;52.342;9.662;2023-10-08T01:46:39;16.50;67.00
11647;DHT22;5880;52.342;9.662;2023-10-08T01:49:06;16.50;67.40
11647;DHT22;5880;52.342;9.662;2023-10-08T01:51:40;16.50;67.60
11647;DHT22;5880;52.342;9.662;2023-10-08T01:54:13;16.60;67.60
11647;DHT22;5880;52.342;9.662;2023-10-08T01:56:41;16.60;67.60
11647;DHT22;5880;52.342;9.662;2023-10-08T01:59:12;16.60;67.70
11647;DHT22;5880;52.342;9.662;2023-10-08T02:01:43;16.60;67.80
11647;DHT22;5880;52.342;9.662;2023-10-08T02:04:10;16.60;67.90
11647;DHT22;5880;52.342;9.662;2023-10-08T02:06:41;16.60;67.60
11647;DHT22;5880;52.342;9.662;2023-10-08T02:09:07;16.60;67.60
11647;DHT22;5880;52.342;9.662;2023-10-08T02:11:47;16.60;67.60
11647;DHT22;5880;52.342;9.662;2023-10-08T02:14:19;16.70;69.30
11647;DHT22;5880;52.342;9.662;2023-10-08T02:16:46;16.60;67.70
11647;DHT22;5880;52.342;9.662;2023-10-08T02:19:13;16.70;67.90
11647;DHT22;5880;52.342;9.662;2023-10-08T02:21:40;16.70;67.90
11647;DHT22;5880;52.342;9.662;2023-10-08T02:24:06;16.70;67.80
11647;DHT22;5880;52.342;9.662;2023-10-08T02:26:34;16.70;67.80
11647;DHT22;5880;52.342;9.662;2023-10-08T02:29:00;16.60;67.60
11647;DHT22;5880;52.342;9.662;2023-10-08T02:31:26;16.60;67.40
11647;DHT22;5880;52.342;9.662;2023-10-08T02:33:53;16.70;67.50
11647;DHT22;5880;52.342;9.662;2023-10-08T02:36:19;16.60;67.40
11647;DHT22;5880;52.342;9.662;2023-10-08T02:38:45;16.70;67.60
11647;DHT22;5880;52.342;9.662;2023-10-08T02:41:16;16.70;67.70
11647;DHT22;5880;52.342;9.662;2023-10-08T02:43:42;16.70;68.20
11647;DHT22;5880;52.342;9.662;2023-10-08T02:46:10;16.70;67.90
11647;DHT22;5880;52.342;9.662;2023-10-08T02:48:41;16.70;68.00
11647;DHT22;5880;52.342;9.662;2023-10-08T02:51:07;16.70;68.00
11647;DHT22;5880;52.342;9.662;2023-10-08T02:53:39;16.70;68.10
11647;DHT22;5880;52.342;9.662;2023-10-08T02:56:09;16.70;68.20
11647;DHT22;5880;52.342;9.662;2023-10-08T02:58:42;16.70;68.20
11647;DHT22;5880;52.342;9.662;2023-10-08T03:01:12;16.70;68.40
11647;DHT22;5880;52.342;9.662;2023-10-08T03:03:40;16.70;68.20
11647;DHT22;5880;52.342;9.662;2023-10-08T03:06:07;16.70;68.20
11647;DHT22;5880;52.342;9.662;2023-10-08T03:08:40;16.70;68.00
11647;DHT22;5880;52.342;9.662;2023-10-08T03:11:09;16.80;67.90
11647;DHT22;5880;52.342;9.662;2023-10-08T03:13:46;16.70;67.80
11647;DHT22;5880;52.342;9.662;2023-10-08T03:16:14;16.70;67.90
11647;DHT22;5880;52.342;9.662;2023-10-08T03:18:41;16.70;68.10
11647;DHT22;5880;52.342;9.662;2023-10-08T03:21:15;16.70;67.90
11647;DHT22;5880;52.342;9.662;2023-10-08T03:24:07;16.70;67.90
11647;DHT22;5880;52.342;9.662;2023-10-08T03:26:58;16.70;68.00
11647;DHT22;5880;52.342;9.662;2023-10-08T03:29:53;16.60;68.00
11647;DHT22;5880;52.342;9.662;2023-10-08T03:32:20;16.70;68.10
11647;DHT22;5880;52.342;9.662;2023-10-08T03:34:52;16.70;68.30
11647;DHT22;5880;52.342;9.662;2023-10-08T03:37:21;16.60;68.20
11647;DHT22;5880;52.342;9.662;2023-10-08T03:39:55;16.70;68.50
11647;DHT22;5880;52.342;9.662;2023-10-08T03:42:55;16.70;68.40
11647;DHT22;5880;52.342;9.662;2023-10-08T03:45:21;16.70;68.30
11647;DHT22;5880;52.342;9.662;2023-10-08T03:48:06;16.60;68.20
11647;DHT22;5880;52.342;9.662;2023-10-08T03:50:33;16.70;68.30
11647;DHT22;5880;52.342;9.662;2023-10-08T03:53:07;16.60;68.20
11647;DHT22;5880;52.342;9.662;2023-10-08T03:55:39;16.70;68.20
11647;DHT22;5880;52.342;9.662;2023-10-08T03:58:08;16.70;68.20
11647;DHT22;5880;52.342;9.662;2023-10-08T04:00:39;16.70;68.30
11647;DHT22;5880;52.342;9.662;2023-10-08T04:03:08;16.60;68.20
11647;DHT22;5880;52.342;9.662;2023-10-08T04:05:39;16.60;68.20
11647;DHT22;5880;52.342;9.662;2023-10-08T04:08:23;16.60;68.10
11647;DHT22;5880;52.342;9.662;2023-10-08T04:11:09;16.60;68.10
11647;DHT22;5880;52.342;9.662;2023-10-08T04:13:53;16.60;68.20
11647;DHT22;5880;52.342;9.662;2023-10-08T04:16:18;16.70;68.30
11647;DHT22;5880;52.342;9.662;2023-10-08T04:18:46;16.50;68.30
11647;DHT22;5880;52.342;9.662;2023-10-08T04:21:17;16.50;68.50
11647;DHT22;5880;52.342;9.662;2023-10-08T04:23:46;16.60;68.30
11647;DHT22;5880;52.342;9.662;2023-10-08T04:26:17;16.50;68.20
11647;DHT22;5880;52.342;9.662;2023-10-08T04:28:53;16.50;68.30
11647;DHT22;5880;52.342;9.662;2023-10-08T04:31:28;16.50;68.20
11647;DHT22;5880;52.342;9.662;2023-10-08T04:34:12;16.50;68.10
11647;DHT22;5880;52.342;9.662;2023-10-08T04:36:47;16.50;68.20
11647;DHT22;5880;52.342;9.662;2023-10-08T04:39:20;16.50;68.40
11647;DHT22;5880;52.342;9.662;2023-10-08T04:42:00;16.50;68.20
11647;DHT22;5880;52.342;9.662;2023-10-08T04:44:37;16.50;68.20
11647;DHT22;5880;52.342;9.662;2023-10-08T04:47:09;16.40;68.20
11647;DHT22;5880;52.342;9.662;2023-10-08T04:49:35;16.40;68.50
11647;DHT22;5880;52.342;9.662;2023-10-08T04:52:06;16.40;68.30
11647;DHT22;5880;52.342;9.662;2023-10-08T04:54:44;16.80;68.70
11647;DHT22;5880;52.342;9.662;2023-10-08T04:57:20;16.40;68.30
11647;DHT22;5880;52.342;9.662;2023-10-08T04:59:51;16.40;68.30
11647;DHT22;5880;52.342;9.662;2023-10-08T05:02:17;16.40;68.30
11647;DHT22;5880;52.342;9.662;2023-10-08T05:04:59;16.10;68.30
11647;DHT22;5880;52.342;9.662;2023-10-08T05:07:37;16.50;68.40
11647;DHT22;5880;52.342;9.662;2023-10-08T05:10:23;16.40;68.20
11647;DHT22;5880;52.342;9.662;2023-10-08T05:12:49;16.40;68.20
11647;DHT22;5880;52.342;9.662;2023-10-08T05:15:41;16.40;68.20
11647;DHT22;5880;52.342;9.662;2023-10-08T05:18:27;16.40;69.10
11647;DHT22;5880;52.342;9.662;2023-10-08T05:21:13;16.30;68.30
11647;DHT22;5880;52.342;9.662;2023-10-08T05:23:51;16.40;68.40
11647;DHT22;5880;52.342;9.662;2023-10-08T05:26:38;16.40;68.50
11647;DHT22;5880;52.342;9.662;2023-10-08T05:29:10;16.30;68.50
11647;DHT22;5880;52.342;9.662;2023-10-08T05:32:04;16.30;68.40
11647;DHT22;5880;52.342;9.662;2023-10-08T05:34:48;16.30;68.40
11647;DHT22;5880;52.342;9.662;2023-10-08T05:37:37;16.30;68.30
11647;DHT22;5880;52.342;9.662;2023-10-08T05:40:08;16.30;68.30
11647;DHT22;5880;52.342;9.662;2023-10-08T05:42:59;16.30;68.60
11647;DHT22;5880;52.342;9.662;2023-10-08T05:45:39;16.30;68.70
11647;DHT22;5880;52.342;9.662;2023-10-08T05:48:17;16.30;68.80
11647;DHT22;5880;52.342;9.662;2023-10-08T05:50:52;16.30;68.80
11647;DHT22;5880;52.342;9.662;2023-10-08T05:53:38;16.30;68.90
11647;DHT22;5880;52.342;9.662;2023-10-08T05:56:09;16.30;68.90
11647;DHT22;5880;52.342;9.662;2023-10-08T05:58:53;16.30;68.80
11647;DHT22;5880;52.342;9.662;2023-10-08T06:01:38;16.30;68.80
11647;DHT22;5880;52.342;9.662;2023-10-08T06:04:06;16.30;68.80
11647;DHT22;5880;52.342;9.662;2023-10-08T06:07:07;16.30;68.80
11647;DHT22;5880;52.342;9.662;2023-10-08T06:09:46;16.30;68.50
11647;DHT22;5880;52.342;9.662;2023-10-08T06:12:27;16.30;68.60
11647;DHT22;5880;52.342;9.662;2023-10-08T06:14:55;16.20;68.60
11647;DHT22;5880;52.342;9.662;2023-10-08T06:17:35;16.30;68.80
11647;DHT22;5880;52.342;9.662;2023-10-08T06:20:21;16.70;69.00
11647;DHT22;5880;52.342;9.662;2023-10-08T06:22:51;16.20;68.70
11647;DHT22;5880;52.342;9.662;2023-10-08T06:25:20;16.30;68.90
11647;DHT22;5880;52.342;9.662;2023-10-08T06:27:50;16.50;69.10
11647;DHT22;5880;52.342;9.662;2023-10-08T06:30:21;16.30;69.10
11647;DHT22;5880;52.342;9.662;2023-10-08T06:32:49;16.30;69.10
11647;DHT22;5880;52.342;9.662;2023-10-08T06:35:16;16.30;69.30
11647;DHT22;5880;52.342;9.662;2023-10-08T06:37:45;16.30;69.30
11647;DHT22;5880;52.342;9.662;2023-10-08T06:40:16;16.30;69.40
11647;DHT22;5880;52.342;9.662;2023-10-08T06:43:00;16.50;69.60
11647;DHT22;5880;52.342;9.662;2023-10-08T06:45:41;16.30;69.50
11647;DHT22;5880;52.342;9.662;2023-10-08T06:48:09;16.40;69.90
11647;DHT22;5880;52.342;9.662;2023-10-08T06:50:43;16.40;70.50
11647;DHT22;5880;52.342;9.662;2023-10-08T06:53:11;16.50;69.80
11647;DHT22;5880;52.342;9.662;2023-10-08T06:55:42;16.40;70.30
11647;DHT22;5880;52.342;9.662;2023-10-08T06:58:08;16.80;70.20
11647;DHT22;5880;52.342;9.662;2023-10-08T07:00:35;16.50;70.10
11647;DHT22;5880;52.342;9.662;2023-10-08T07:03:08;16.50;70.00
11647;DHT22;5880;52.342;9.662;2023-10-08T07:05:40;16.70;70.30
11647;DHT22;5880;52.342;9.662;2023-10-08T07:08:10;16.40;70.00
11647;DHT22;5880;52.342;9.662;2023-10-08T07:10:40;16.70;70.10
11647;DHT22;5880;52.342;9.662;2023-10-08T07:13:11;16.70;70.10
11647;DHT22;5880;52.342;9.662;2023-10-08T07:15:36;16.70;70.00
11647;DHT22;5880;52.342;9.662;2023-10-08T07:18:05;16.70;70.00
11647;DHT22;5880;52.342;9.662;2023-10-08T07:20:45;16.80;70.20
11647;DHT22;5880;52.342;9.662;2023-10-08T07:23:11;16.80;70.20
11647;DHT22;5880;52.342;9.662;2023-10-08T07:26:09;16.80;70.30
11647;DHT22;5880;52.342;9.662;2023-10-08T07:28:44;16.90;70.30
11647;DHT22;5880;52.342;9.662;2023-10-08T07:31:14;16.90;70.20
11647;DHT22;5880;52.342;9.662;2023-10-08T07:34:05;17.20;70.60
11647;DHT22;5880;52.342;9.662;2023-10-08T07:37:03;17.00;70.80
11647;DHT22;5880;52.342;9.662;2023-10-08T07:39:31;17.10;70.10
11647;DHT22;5880;52.342;9.662;2023-10-08T07:41:58;17.10;70.00
11647;DHT22;5880;52.342;9.662;2023-10-08T07:44:26;17.30;69.80
11647;DHT22;5880;52.342;9.662;2023-10-08T07:47:02;17.20;69.90
11647;DHT22;5880;52.342;9.662;2023-10-08T07:49:35;17.20;69.90
11647;DHT22;5880;52.342;9.662;2023-10-08T07:52:01;17.30;70.10
11647;DHT22;5880;52.342;9.662;2023-10-08T07:54:31;17.30;70.10
11647;DHT22;5880;52.342;9.662;2023-10-08T07:57:01;17.30;69.80
11647;DHT22;5880;52.342;9.662;2023-10-08T07:59:39;17.30;69.80
11647;DHT22;5880;52.342;9.662;2023-10-08T08:02:20;17.30;70.10
11647;DHT22;5880;52.342;9.662;2023-10-08T08:04:52;17.30;70.00
11647;DHT22;5880;52.342;9.662;2023-10-08T08:07:21;17.30;71.00
11647;DHT22;5880;52.342;9.662;2023-10-08T08:09:52;17.30;70.30
11647;DHT22;5880;52.342;9.662;2023-10-08T08:12:25;17.30;70.30
11647;DHT22;5880;52.342;9.662;2023-10-08T08:14:53;17.40;70.10
11647;DHT22;5880;52.342;9.662;2023-10-08T08:17:20;17.30;70.10
11647;DHT22;5880;52.342;9.662;2023-10-08T08:19:49;17.40;70.00
11647;DHT22;5880;52.342;9.662;2023-10-08T08:22:18;17.40;70.00
11647;DHT22;5880;52.342;9.662;2023-10-08T08:24:51;17.40;70.10
11647;DHT22;5880;52.342;9.662;2023-10-08T08:27:42;17.40;70.20
11647;DHT22;5880;52.342;9.662;2023-10-08T08:30:12;17.40;70.10
11647;DHT22;5880;52.342;9.662;2023-10-08T08:32:41;17.50;70.10
11647;DHT22;5880;52.342;9.662;2023-10-08T08:35:13;17.50;70.00
11647;DHT22;5880;52.342;9.662;2023-10-08T08:37:42;17.60;70.20
11647;DHT22;5880;52.342;9.662;2023-10-08T08:40:09;17.70;70.40
11647;DHT22;5880;52.342;9.662;2023-10-08T08:42:46;17.60;70.20
11647;DHT22;5880;52.342;9.662;2023-10-08T08:45:18;17.70;70.30
11647;DHT22;5880;52.342;9.662;2023-10-08T08:47:46;17.70;70.00
11647;DHT22;5880;52.342;9.662;2023-10-08T08:50:12;17.80;70.30
11647;DHT22;5880;52.342;9.662;2023-10-08T08:52:39;17.90;71.10
11647;DHT22;5880;52.342;9.662;2023-10-08T08:55:08;18.00;71.10
11647;DHT22;5880;52.342;9.662;2023-10-08T08:57:41;18.10;71.30
11647;DHT22;5880;52.342;9.662;2023-10-08T09:00:13;18.20;72.70
11647;DHT22;5880;52.342;9.662;2023-10-08T09:02:40;18.50;73.70
11647;DHT22;5880;52.342;9.662;2023-10-08T09:05:07;18.80;74.60
11647;DHT22;5880;52.342;9.662;2023-10-08T09:07:56;19.20;75.30
11647;DHT22;5880;52.342;9.662;2023-10-08T09:10:24;19.70;75.80
11647;DHT22;5880;52.342;9.662;2023-10-08T09:12:55;20.10;76.10
11647;DHT22;5880;52.342;9.662;2023-10-08T09:15:26;20.60;75.60
11647;DHT22;5880;52.342;9.662;2023-10-08T09:17:53;21.10;75.40
11647;DHT22;5880;52.342;9.662;2023-10-08T09:20:22;21.50;74.80
11647;DHT22;5880;52.342;9.662;2023-10-08T09:23:08;22.00;73.60
11647;DHT22;5880;52.342;9.662;2023-10-08T09:25:42;22.50;69.80
11647;DHT22;5880;52.342;9.662;2023-10-08T09:28:10;22.90;72.10
11647;DHT22;5880;52.342;9.662;2023-10-08T09:30:40;23.20;70.20
11647;DHT22;5880;52.342;9.662;2023-10-08T09:33:11;23.50;68.60
11647;DHT22;5880;52.342;9.662;2023-10-08T09:35:38;23.70;64.60
11647;DHT22;5880;52.342;9.662;2023-10-08T09:38:06;23.80;64.40
11647;DHT22;5880;52.342;9.662;2023-10-08T09:40:39;24.00;65.10
11647;DHT22;5880;52.342;9.662;2023-10-08T09:43:12;24.10;63.60
11647;DHT22;5880;52.342;9.662;2023-10-08T09:45:46;24.20;65.00
11647;DHT22;5880;52.342;9.662;2023-10-08T09:48:18;24.30;64.10
11647;DHT22;5880;52.342;9.662;2023-10-08T09:50:48;24.40;64.10
11647;DHT22;5880;52.342;9.662;2023-10-08T09:53:28;24.50;64.60
11647;DHT22;5880;52.342;9.662;2023-10-08T09:56:13;24.70;63.60
11647;DHT22;5880;52.342;9.662;2023-10-08T09:58:41;24.70;61.80
11647;DHT22;5880;52.342;9.662;2023-10-08T10:01:10;24.70;61.30
11647;DHT22;5880;52.342;9.662;2023-10-08T10:03:36;24.60;59.60
11647;DHT22;5880;52.342;9.662;2023-10-08T10:06:02;24.40;58.80
11647;DHT22;5880;52.342;9.662;2023-10-08T10:08:35;24.20;58.00
11647;DHT22;5880;52.342;9.662;2023-10-08T10:11:01;23.90;56.60
11647;DHT22;5880;52.342;9.662;2023-10-08T10:13:29;23.60;56.80
11647;DHT22;5880;52.342;9.662;2023-10-08T10:15:59;23.40;57.00
11647;DHT22;5880;52.342;9.662;2023-10-08T10:23:47;23.00;55.90
11647;DHT22;5880;52.342;9.662;2023-10-08T10:31:48;22.70;53.50
11647;DHT22;5880;52.342;9.662;2023-10-08T10:34:20;22.60;53.60
11647;DHT22;5880;52.342;9.662;2023-10-08T10:36:50;22.40;53.80
11647;DHT22;5880;52.342;9.662;2023-10-08T10:39:21;22.10;54.60
11647;DHT22;5880;52.342;9.662;2023-10-08T10:42:00;21.90;54.30
11647;DHT22;5880;52.342;9.662;2023-10-08T10:44:30;21.70;54.00
11647;DHT22;5880;52.342;9.662;2023-10-08T10:46:58;21.60;54.90
11647;DHT22;5880;52.342;9.662;2023-10-08T10:49:41;21.30;55.80
11647;DHT22;5880;52.342;9.662;2023-10-08T10:52:17;21.10;57.20
11647;DHT22;5880;52.342;9.662;2023-10-08T10:55:04;20.90;56.80
11647;DHT22;5880;52.342;9.662;2023-10-08T10:58:03;20.70;56.60
11647;DHT22;5880;52.342;9.662;2023-10-08T11:00:37;20.50;57.20
11647;DHT22;5880;52.342;9.662;2023-10-08T11:03:06;20.50;58.00
11647;DHT22;5880;52.342;9.662;2023-10-08T11:06:00;20.30;58.30
11647;DHT22;5880;52.342;9.662;2023-10-08T11:08:32;20.20;57.80
11647;DHT22;5880;52.342;9.662;2023-10-08T11:11:01;20.10;58.00
11647;DHT22;5880;52.342;9.662;2023-10-08T11:13:33;20.00;58.00
11647;DHT22;5880;52.342;9.662;2023-10-08T11:16:05;20.10;59.00
11647;DHT22;5880;52.342;9.662;2023-10-08T11:18:33;20.00;58.90
11647;DHT22;5880;52.342;9.662;2023-10-08T11:21:06;20.00;58.30
11647;DHT22;5880;52.342;9.662;2023-10-08T11:23:45;20.00;57.20
11647;DHT22;5880;52.342;9.662;2023-10-08T11:26:18;20.00;58.50
11647;DHT22;5880;52.342;9.662;2023-10-08T11:28:45;20.00;59.10
11647;DHT22;5880;52.342;9.662;2023-10-08T11:31:16;20.00;59.40
11647;DHT22;5880;52.342;9.662;2023-10-08T11:33:47;20.00;59.20
11647;DHT22;5880;52.342;9.662;2023-10-08T11:36:23;20.00;59.70
11647;DHT22;5880;52.342;9.662;2023-10-08T11:38:57;20.00;59.10
11647;DHT22;5880;52.342;9.662;2023-10-08T11:41:33;20.00;58.90
11647;DHT22;5880;52.342;9.662;2023-10-08T11:44:15;20.00;59.20
11647;DHT22;5880;52.342;9.662;2023-10-08T11:46:45;20.00;58.40
11647;DHT22;5880;52.342;9.662;2023-10-08T11:49:17;20.00;58.30
11647;DHT22;5880;52.342;9.662;2023-10-08T11:51:44;19.90;58.40
11647;DHT22;5880;52.342;9.662;2023-10-08T11:54:13;19.90;58.90
11647;DHT22;5880;52.342;9.662;2023-10-08T11:56:40;19.90;59.00
11647;DHT22;5880;52.342;9.662;2023-10-08T11:59:06;19.90;59.30
11647;DHT22;5880;52.342;9.662;2023-10-08T12:01:38;19.80;58.80
11647;DHT22;5880;52.342;9.662;2023-10-08T12:04:11;19.70;58.50
11647;DHT22;5880;52.342;9.662;2023-10-08T12:06:42;19.70;58.80
11647;DHT22;5880;52.342;9.662;2023-10-08T12:09:18;19.70;59.20
11647;DHT22;5880;52.342;9.662;2023-10-08T12:11:50;19.70;59.60
11647;DHT22;5880;52.342;9.662;2023-10-08T12:14:17;19.60;58.70
11647;DHT22;5880;52.342;9.662;2023-10-08T12:16:44;19.50;58.20
11647;DHT22;5880;52.342;9.662;2023-10-08T12:19:11;19.70;59.10
11647;DHT22;5880;52.342;9.662;2023-10-08T12:21:44;19.60;58.90
11647;DHT22;5880;52.342;9.662;2023-10-08T12:24:13;19.60;58.10
11647;DHT22;5880;52.342;9.662;2023-10-08T12:26:40;19.70;57.90
11647;DHT22;5880;52.342;9.662;2023-10-08T12:29:11;19.60;57.90
11647;DHT22;5880;52.342;9.662;2023-10-08T12:31:40;19.60;58.70
11647;DHT22;5880;52.342;9.662;2023-10-08T12:34:06;19.60;59.10
11647;DHT22;5880;52.342;9.662;2023-10-08T12:36:31;19.60;59.30
11647;DHT22;5880;52.342;9.662;2023-10-08T12:39:02;19.60;58.80
11647;DHT22;5880;52.342;9.662;2023-10-08T12:41:34;19.60;58.40
11647;DHT22;5880;52.342;9.662;2023-10-08T12:44:04;19.60;59.00
11647;DHT22;5880;52.342;9.662;2023-10-08T12:46:33;19.70;57.90
11647;DHT22;5880;52.342;9.662;2023-10-08T12:48:59;19.70;58.10
11647;DHT22;5880;52.342;9.662;2023-10-08T12:51:28;19.70;58.50
11647;DHT22;5880;52.342;9.662;2023-10-08T12:53:59;19.70;57.60
11647;DHT22;5880;52.342;9.662;2023-10-08T12:56:32;19.70;57.20
11647;DHT22;5880;52.342;9.662;2023-10-08T12:59:10;19.70;57.30
11647;DHT22;5880;52.342;9.662;2023-10-08T13:01:46;19.80;56.90
11647;DHT22;5880;52.342;9.662;2023-10-08T13:04:17;19.80;56.90
11647;DHT22;5880;52.342;9.662;2023-10-08T13:06:51;19.80;57.60
11647;DHT22;5880;52.342;9.662;2023-10-08T13:09:22;19.80;57.30
11647;DHT22;5880;52.342;9.662;2023-10-08T13:11:48;19.90;57.00
11647;DHT22;5880;52.342;9.662;2023-10-08T13:14:15;19.80;56.70
11647;DHT22;5880;52.342;9.662;2023-10-08T13:16:41;19.80;56.80
11647;DHT22;5880;52.342;9.662;2023-10-08T13:19:06;19.80;56.50
11647;DHT22;5880;52.342;9.662;2023-10-08T13:21:34;19.70;57.00
11647;DHT22;5880;52.342;9.662;2023-10-08T13:24:02;19.80;57.70
11647;DHT22;5880;52.342;9.662;2023-10-08T13:26:30;19.70;57.30
11647;DHT22;5880;52.342;9.662;2023-10-08T13:28:59;19.70;57.70
11647;DHT22;5880;52.342;9.662;2023-10-08T13:31:27;19.70;56.40
11647;DHT22;5880;52.342;9.662;2023-10-08T13:33:53;19.70;57.80
11647;DHT22;5880;52.342;9.662;2023-10-08T13:36:22;19.70;57.90
11647;DHT22;5880;52.342;9.662;2023-10-08T13:38:49;19.70;57.60
11647;DHT22;5880;52.342;9.662;2023-10-08T13:41:15;19.70;57.60
11647;DHT22;5880;52.342;9.662;2023-10-08T13:43:42;19.60;56.90
11647;DHT22;5880;52.342;9.662;2023-10-08T13:46:13;19.80;57.30
11647;DHT22;5880;52.342;9.662;2023-10-08T13:48:43;19.70;57.60
11647;DHT22;5880;52.342;9.662;2023-10-08T13:51:18;19.70;58.10
11647;DHT22;5880;52.342;9.662;2023-10-08T13:53:56;19.70;58.30
11647;DHT22;5880;52.342;9.662;2023-10-08T13:56:27;19.70;57.70
11647;DHT22;5880;52.342;9.662;2023-10-08T13:58:55;19.70;57.80
11647;DHT22;5880;52.342;9.662;2023-10-08T14:01:51;19.70;57.70
11647;DHT22;5880;52.342;9.662;2023-10-08T14:04:17;19.70;57.70
11647;DHT22;5880;52.342;9.662;2023-10-08T14:06:45;19.70;57.90
11647;DHT22;5880;52.342;9.662;2023-10-08T14:09:19;19.80;58.00
11647;DHT22;5880;52.342;9.662;2023-10-08T14:11:47;19.80;57.70
11647;DHT22;5880;52.342;9.662;2023-10-08T14:14:16;19.90;57.70
11647;DHT22;5880;52.342;9.662;2023-10-08T14:16:43;19.90;57.40
11647;DHT22;5880;52.342;9.662;2023-10-08T14:19:09;20.00;57.40
11647;DHT22;5880;52.342;9.662;2023-10-08T14:21:38;20.00;57.50
11647;DHT22;5880;52.342;9.662;2023-10-08T14:24:17;20.00;57.60
11647;DHT22;5880;52.342;9.662;2023-10-08T14:26:44;20.00;58.00
11647;DHT22;5880;52.342;9.662;2023-10-08T14:29:17;20.00;58.20
11647;DHT22;5880;52.342;9.662;2023-10-08T14:31:43;20.00;58.40
11647;DHT22;5880;52.342;9.662;2023-10-08T14:34:14;20.00;58.40
11647;DHT22;5880;52.342;9.662;2023-10-08T14:36:40;20.10;58.40
11647;DHT22;5880;52.342;9.662;2023-10-08T14:39:25;20.00;58.40
11647;DHT22;5880;52.342;9.662;2023-10-08T14:42:09;20.00;57.60
11647;DHT22;5880;52.342;9.662;2023-10-08T14:44:53;20.00;57.30
11647;DHT22;5880;52.342;9.662;2023-10-08T14:47:19;20.00;57.40
11647;DHT22;5880;52.342;9.662;2023-10-08T14:49:45;20.00;57.00
11647;DHT22;5880;52.342;9.662;2023-10-08T14:52:11;19.90;56.80
11647;DHT22;5880;52.342;9.662;2023-10-08T14:54:37;20.00;57.30
11647;DHT22;5880;52.342;9.662;2023-10-08T14:57:03;19.90;57.50
11647;DHT22;5880;52.342;9.662;2023-10-08T14:59:31;19.90;57.50
11647;DHT22;5880;52.342;9.662;2023-10-08T15:01:58;19.80;57.80
11647;DHT22;5880;52.342;9.662;2023-10-08T15:04:25;19.80;58.10
11647;DHT22;5880;52.342;9.662;2023-10-08T15:06:55;19.80;58.20
11647;DHT22;5880;52.342;9.662;2023-10-08T15:09:22;19.70;57.90
11647;DHT22;5880;52.342;9.662;2023-10-08T15:11:50;19.70;58.10
11647;DHT22;5880;52.342;9.662;2023-10-08T15:14:19;19.70;58.20
11647;DHT22;5880;52.342;9.662;2023-10-08T15:16:48;19.70;58.20
11647;DHT22;5880;52.342;9.662;2023-10-08T15:19:19;19.70;57.70
11647;DHT22;5880;52.342;9.662;2023-10-08T15:21:46;19.70;58.00
11647;DHT22;5880;52.342;9.662;2023-10-08T15:24:19;19.60;58.20
11647;DHT22;5880;52.342;9.662;2023-10-08T15:26:49;19.60;58.00
11647;DHT22;5880;52.342;9.662;2023-10-08T15:29:22;19.70;58.50
11647;DHT22;5880;52.342;9.662;2023-10-08T15:31:54;19.60;57.80
11647;DHT22;5880;52.342;9.662;2023-10-08T15:34:23;19.60;57.60
11647;DHT22;5880;52.342;9.662;2023-10-08T15:36:52;19.50;57.10
11647;DHT22;5880;52.342;9.662;2023-10-08T15:39:18;19.60;57.70
11647;DHT22;5880;52.342;9.662;2023-10-08T15:41:49;19.50;57.90
11647;DHT22;5880;52.342;9.662;2023-10-08T15:44:17;19.40;58.20
11647;DHT22;5880;52.342;9.662;2023-10-08T15:46:44;19.40;58.60
11647;DHT22;5880;52.342;9.662;2023-10-08T15:49:10;19.40;58.60
11647;DHT22;5880;52.342;9.662;2023-10-08T15:51:37;19.30;58.90
11647;DHT22;5880;52.342;9.662;2023-10-08T15:54:03;19.30;59.10
11647;DHT22;5880;52.342;9.662;2023-10-08T15:56:29;19.30;59.30
11647;DHT22;5880;52.342;9.662;2023-10-08T15:58:55;19.20;59.40
11647;DHT22;5880;52.342;9.662;2023-10-08T16:01:24;19.10;59.60
11647;DHT22;5880;52.342;9.662;2023-10-08T16:03:53;19.10;59.90
11647;DHT22;5880;52.342;9.662;2023-10-08T16:06:19;19.10;59.50
11647;DHT22;5880;52.342;9.662;2023-10-08T16:08:45;19.10;59.50
11647;DHT22;5880;52.342;9.662;2023-10-08T16:11:12;19.00;59.80
11647;DHT22;5880;52.342;9.662;2023-10-08T16:13:38;19.00;59.00
11647;DHT22;5880;52.342;9.662;2023-10-08T16:16:06;18.90;59.40
11647;DHT22;5880;52.342;9.662;2023-10-08T16:18:35;18.90;59.30
11647;DHT22;5880;52.342;9.662;2023-10-08T16:21:01;18.80;59.30
11647;DHT22;5880;52.342;9.662;2023-10-08T16:23:27;18.80;59.30
11647;DHT22;5880;52.342;9.662;2023-10-08T16:25:55;18.80;59.30
11647;DHT22;5880;52.342;9.662;2023-10-08T16:28:21;18.80;59.40